sensor_id;sensor_type;location;lat;lon;timestamp;temperature;humidity
34145;HTU21D;69555;53.014;8.886;2023-11-18T00:00:23;2.83;95.17
34145;HTU21D;69555;53.014;8.886;2023-11-18T00:02:51;2.62;96.26
34145;HTU21D;69555;53.014;8.886;2023-11-18T00:05:17;2.38;96.54
34145;HTU21D;69555;53.014;8.886;2023-11-18T00:07:44;1.99;98.64
34145;HTU21D;69555;53.014;8.886;2023-11-18T00:10:11;2.08;98.29
34145;HTU21D;69555;53.014;8.886;2023-11-18T00:12:38;2.30;97.27
34145;HTU21D;69555;53.014;8.886;2023-11-18T00:15:09;2.44;96.37
34145;HTU21D;69555;53.014;8.886;2023-11-18T00:17:37;2.32;97.04
34145;HTU21D;69555;53.014;8.886;2023-11-18T00:20:04;2.50;96.06
34145;HTU21D;69555;53.014;8.886;2023-11-18T00:22:35;2.71;94.87
34145;HTU21D;69555;53.014;8.886;2023-11-18T00:25:03;2.53;94.81
34145;HTU21D;69555;53.014;8.886;2023-11-18T00:27:34;2.51;95.31
34145;HTU21D;69555;53.014;8.886;2023-11-18T00:30:04;2.68;94.24
34145;HTU21D;69555;53.014;8.886;2023-11-18T00:32:32;2.57;93.99
34145;HTU21D;69555;53.014;8.886;2023-11-18T00:34:58;2.40;95.02
34145;HTU21D;69555;53.014;8.886;2023-11-18T00:37:25;2.51;93.17
34145;HTU21D;69555;53.014;8.886;2023-11-18T00:39:52;2.56;93.43
34145;HTU21D;69555;53.014;8.886;2023-11-18T00:42:19;2.43;94.49
34145;HTU21D;69555;53.014;8.886;2023-11-18T00:44:44;2.09;95.31
34145;HTU21D;69555;53.014;8.886;2023-11-18T00:47:11;1.84;97.00
34145;HTU21D;69555;53.014;8.886;2023-11-18T00:49:37;1.69;97.64
34145;HTU21D;69555;53.014;8.886;2023-11-18T00:52:04;1.58;99.32
34145;HTU21D;69555;53.014;8.886;2023-11-18T00:54:31;1.81;98.74
34145;HTU21D;69555;53.014;8.886;2023-11-18T00:56:58;1.78;99.09
34145;HTU21D;69555;53.014;8.886;2023-11-18T00:59:24;1.51;100.27
34145;HTU21D;69555;53.014;8.886;2023-11-18T01:01:51;1.53;101.69
34145;HTU21D;69555;53.014;8.886;2023-11-18T01:04:18;2.24;98.18
34145;HTU21D;69555;53.014;8.886;2023-11-18T01:06:46;2.44;96.70
34145;HTU21D;69555;53.014;8.886;2023-11-18T01:09:14;2.76;94.75
34145;HTU21D;69555;53.014;8.886;2023-11-18T01:11:42;2.69;95.36
34145;HTU21D;69555;53.014;8.886;2023-11-18T01:14:09;2.89;94.75
34145;HTU21D;69555;53.014;8.886;2023-11-18T01:16:36;3.02;94.24
34145;HTU21D;69555;53.014;8.886;2023-11-18T01:19:03;2.74;95.78
34145;HTU21D;69555;53.014;8.886;2023-11-18T01:21:30;2.80;95.77
34145;HTU21D;69555;53.014;8.886;2023-11-18T01:23:56;2.71;96.19
34145;HTU21D;69555;53.014;8.886;2023-11-18T01:26:24;2.61;96.94
34145;HTU21D;69555;53.014;8.886;2023-11-18T01:28:50;2.80;97.01
34145;HTU21D;69555;53.014;8.886;2023-11-18T01:31:17;2.58;97.92
34145;HTU21D;69555;53.014;8.886;2023-11-18T01:33:44;2.46;99.22
34145;HTU21D;69555;53.014;8.886;2023-11-18T01:36:11;2.47;99.64
34145;HTU21D;69555;53.014;8.886;2023-11-18T01:38:38;2.46;100.50
34145;HTU21D;69555;53.014;8.886;2023-11-18T01:41:06;2.58;99.96
34145;HTU21D;69555;53.014;8.886;2023-11-18T01:43:33;2.64;100.11
34145;HTU21D;69555;53.014;8.886;2023-11-18T01:46:03;2.76;99.65
34145;HTU21D;69555;53.014;8.886;2023-11-18T01:48:31;2.70;100.48
34145;HTU21D;69555;53.014;8.886;2023-11-18T01:51:01;2.75;100.47
34145;HTU21D;69555;53.014;8.886;2023-11-18T01:53:31;2.76;100.37
34145;HTU21D;69555;53.014;8.886;2023-11-18T01:55:59;2.65;101.18
34145;HTU21D;69555;53.014;8.886;2023-11-18T01:58:26;2.67;101.58
34145;HTU21D;69555;53.014;8.886;2023-11-18T02:00:55;2.79;100.70
34145;HTU21D;69555;53.014;8.886;2023-11-18T02:03:21;2.82;100.74
34145;HTU21D;69555;53.014;8.886;2023-11-18T02:05:48;3.18;99.80
34145;HTU21D;69555;53.014;8.886;2023-11-18T02:08:15;3.20;99.67
34145;HTU21D;69555;53.014;8.886;2023-11-18T02:11:14;2.94;100.79
34145;HTU21D;69555;53.014;8.886;2023-11-18T02:13:44;2.89;102.55
34145;HTU21D;69555;53.014;8.886;2023-11-18T02:16:14;3.30;100.23
34145;HTU21D;69555;53.014;8.886;2023-11-18T02:18:42;3.12;101.19
34145;HTU21D;69555;53.014;8.886;2023-11-18T02:21:10;3.41;99.90
34145;HTU21D;69555;53.014;8.886;2023-11-18T02:23:38;3.48;99.81
34145;HTU21D;69555;53.014;8.886;2023-11-18T02:26:05;2.95;101.99
34145;HTU21D;69555;53.014;8.886;2023-11-18T02:28:32;3.16;102.42
34145;HTU21D;69555;53.014;8.886;2023-11-18T02:31:14;3.39;101.03
34145;HTU21D;69555;53.014;8.886;2023-11-18T02:34:04;2.71;105.00
34145;HTU21D;69555;53.014;8.886;2023-11-18T02:36:37;3.06;103.00
34145;HTU21D;69555;53.014;8.886;2023-11-18T02:39:09;2.61;104.28
34145;HTU21D;69555;53.014;8.886;2023-11-18T02:41:38;2.52;105.67
34145;HTU21D;69555;53.014;8.886;2023-11-18T02:44:06;2.28;106.89
34145;HTU21D;69555;53.014;8.886;2023-11-18T02:46:36;2.14;109.14
34145;HTU21D;69555;53.014;8.886;2023-11-18T02:49:04;2.22;109.07
34145;HTU21D;69555;53.014;8.886;2023-11-18T02:51:30;2.65;108.04
34145;HTU21D;69555;53.014;8.886;2023-11-18T02:54:06;2.56;107.05
34145;HTU21D;69555;53.014;8.886;2023-11-18T02:56:37;2.78;106.45
34145;HTU21D;69555;53.014;8.886;2023-11-18T02:59:04;2.94;105.56
34145;HTU21D;69555;53.014;8.886;2023-11-18T03:01:34;3.01;104.92
34145;HTU21D;69555;53.014;8.886;2023-11-18T03:04:01;3.28;103.99
34145;HTU21D;69555;53.014;8.886;2023-11-18T03:06:28;3.14;102.93
34145;HTU21D;69555;53.014;8.886;2023-11-18T03:08:54;3.30;103.01
34145;HTU21D;69555;53.014;8.886;2023-11-18T03:11:21;3.33;102.66
34145;HTU21D;69555;53.014;8.886;2023-11-18T03:14:05;3.46;101.44
34145;HTU21D;69555;53.014;8.886;2023-11-18T03:16:37;3.56;101.35
34145;HTU21D;69555;53.014;8.886;2023-11-18T03:19:04;3.44;100.49
34145;HTU21D;69555;53.014;8.886;2023-11-18T03:21:31;3.46;100.86
34145;HTU21D;69555;53.014;8.886;2023-11-18T03:23:58;3.32;101.22
34145;HTU21D;69555;53.014;8.886;2023-11-18T03:26:25;3.34;100.73
34145;HTU21D;69555;53.014;8.886;2023-11-18T03:28:52;3.30;101.87
34145;HTU21D;69555;53.014;8.886;2023-11-18T03:31:19;3.65;99.97
34145;HTU21D;69555;53.014;8.886;2023-11-18T03:33:46;3.76;100.07
34145;HTU21D;69555;53.014;8.886;2023-11-18T03:36:13;3.49;101.82
34145;HTU21D;69555;53.014;8.886;2023-11-18T03:38:40;3.68;100.16
34145;HTU21D;69555;53.014;8.886;2023-11-18T03:41:07;3.98;99.89
34145;HTU21D;69555;53.014;8.886;2023-11-18T03:43:35;3.80;100.32
34145;HTU21D;69555;53.014;8.886;2023-11-18T03:46:01;3.62;101.74
34145;HTU21D;69555;53.014;8.886;2023-11-18T03:48:28;3.63;101.76
34145;HTU21D;69555;53.014;8.886;2023-11-18T03:50:54;3.04;105.04
34145;HTU21D;69555;53.014;8.886;2023-11-18T03:53:20;2.72;107.98
34145;HTU21D;69555;53.014;8.886;2023-11-18T03:55:47;2.79;108.66
34145;HTU21D;69555;53.014;8.886;2023-11-18T03:58:14;3.01;107.27
34145;HTU21D;69555;53.014;8.886;2023-11-18T04:00:41;3.11;106.70
34145;HTU21D;69555;53.014;8.886;2023-11-18T04:03:07;2.90;108.47
34145;HTU21D;69555;53.014;8.886;2023-11-18T04:05:35;3.32;107.60
34145;HTU21D;69555;53.014;8.886;2023-11-18T04:08:04;3.29;106.42
34145;HTU21D;69555;53.014;8.886;2023-11-18T04:10:30;2.90;108.56
34145;HTU21D;69555;53.014;8.886;2023-11-18T04:12:57;2.82;109.42
34145;HTU21D;69555;53.014;8.886;2023-11-18T04:15:23;2.88;109.68
34145;HTU21D;69555;53.014;8.886;2023-11-18T04:17:52;3.42;107.88
34145;HTU21D;69555;53.014;8.886;2023-11-18T04:20:19;3.18;106.63
34145;HTU21D;69555;53.014;8.886;2023-11-18T04:22:44;3.18;106.17
34145;HTU21D;69555;53.014;8.886;2023-11-18T04:25:11;3.11;106.19
34145;HTU21D;69555;53.014;8.886;2023-11-18T04:27:38;3.14;106.25
34145;HTU21D;69555;53.014;8.886;2023-11-18T04:30:05;3.29;105.80
34145;HTU21D;69555;53.014;8.886;2023-11-18T04:32:31;3.36;105.31
34145;HTU21D;69555;53.014;8.886;2023-11-18T04:34:58;3.82;103.83
34145;HTU21D;69555;53.014;8.886;2023-11-18T04:37:24;4.07;102.50
34145;HTU21D;69555;53.014;8.886;2023-11-18T04:39:50;4.08;102.18
34145;HTU21D;69555;53.014;8.886;2023-11-18T04:42:15;3.88;103.50
34145;HTU21D;69555;53.014;8.886;2023-11-18T04:44:40;3.31;106.29
34145;HTU21D;69555;53.014;8.886;2023-11-18T04:47:06;3.53;106.14
34145;HTU21D;69555;53.014;8.886;2023-11-18T04:49:32;3.42;106.60
34145;HTU21D;69555;53.014;8.886;2023-11-18T04:51:57;3.39;106.87
34145;HTU21D;69555;53.014;8.886;2023-11-18T04:54:24;3.58;106.41
34145;HTU21D;69555;53.014;8.886;2023-11-18T04:56:49;3.23;107.46
34145;HTU21D;69555;53.014;8.886;2023-11-18T04:59:15;3.10;108.81
34145;HTU21D;69555;53.014;8.886;2023-11-18T05:01:40;3.06;110.15
34145;HTU21D;69555;53.014;8.886;2023-11-18T05:04:06;3.26;109.17
34145;HTU21D;69555;53.014;8.886;2023-11-18T05:06:33;3.18;109.76
34145;HTU21D;69555;53.014;8.886;2023-11-18T05:08:59;3.18;110.34
34145;HTU21D;69555;53.014;8.886;2023-11-18T05:11:24;3.77;108.30
34145;HTU21D;69555;53.014;8.886;2023-11-18T05:13:50;3.65;107.15
34145;HTU21D;69555;53.014;8.886;2023-11-18T05:16:15;3.29;109.03
34145;HTU21D;69555;53.014;8.886;2023-11-18T05:18:41;3.08;110.23
34145;HTU21D;69555;53.014;8.886;2023-11-18T05:21:06;3.17;110.32
34145;HTU21D;69555;53.014;8.886;2023-11-18T05:23:34;3.12;110.03
34145;HTU21D;69555;53.014;8.886;2023-11-18T05:25:59;3.10;110.39
34145;HTU21D;69555;53.014;8.886;2023-11-18T05:28:25;3.56;108.91
34145;HTU21D;69555;53.014;8.886;2023-11-18T05:30:51;3.72;107.17
34145;HTU21D;69555;53.014;8.886;2023-11-18T05:33:19;3.68;107.54
34145;HTU21D;69555;53.014;8.886;2023-11-18T05:35:45;3.59;107.47
34145;HTU21D;69555;53.014;8.886;2023-11-18T05:38:18;3.30;108.53
34145;HTU21D;69555;53.014;8.886;2023-11-18T05:40:46;3.40;108.66
34145;HTU21D;69555;53.014;8.886;2023-11-18T05:43:24;3.40;108.81
34145;HTU21D;69555;53.014;8.886;2023-11-18T05:45:51;3.52;108.67
34145;HTU21D;69555;53.014;8.886;2023-11-18T05:48:35;3.32;109.31
34145;HTU21D;69555;53.014;8.886;2023-11-18T05:51:00;3.47;108.84
34145;HTU21D;69555;53.014;8.886;2023-11-18T05:53:25;3.60;108.27
34145;HTU21D;69555;53.014;8.886;2023-11-18T05:55:51;3.76;108.04
34145;HTU21D;69555;53.014;8.886;2023-11-18T05:58:16;3.75;107.40
34145;HTU21D;69555;53.014;8.886;2023-11-18T06:00:41;3.79;107.59
34145;HTU21D;69555;53.014;8.886;2023-11-18T06:03:07;3.63;108.20
34145;HTU21D;69555;53.014;8.886;2023-11-18T06:05:32;3.63;108.65
34145;HTU21D;69555;53.014;8.886;2023-11-18T06:08:00;3.75;108.53
34145;HTU21D;69555;53.014;8.886;2023-11-18T06:10:25;3.54;109.10
34145;HTU21D;69555;53.014;8.886;2023-11-18T06:12:51;3.72;109.07
34145;HTU21D;69555;53.014;8.886;2023-11-18T06:15:16;3.90;108.15
34145;HTU21D;69555;53.014;8.886;2023-11-18T06:17:44;3.77;107.82
34145;HTU21D;69555;53.014;8.886;2023-11-18T06:20:11;3.57;109.14
34145;HTU21D;69555;53.014;8.886;2023-11-18T06:22:36;3.49;109.91
34145;HTU21D;69555;53.014;8.886;2023-11-18T06:25:02;3.46;110.22
34145;HTU21D;69555;53.014;8.886;2023-11-18T06:27:28;3.56;109.84
34145;HTU21D;69555;53.014;8.886;2023-11-18T06:29:53;3.57;110.08
34145;HTU21D;69555;53.014;8.886;2023-11-18T06:32:20;3.40;110.83
34145;HTU21D;69555;53.014;8.886;2023-11-18T06:34:45;3.46;110.94
34145;HTU21D;69555;53.014;8.886;2023-11-18T06:37:10;3.50;110.60
34145;HTU21D;69555;53.014;8.886;2023-11-18T06:39:41;3.38;111.58
34145;HTU21D;69555;53.014;8.886;2023-11-18T06:42:06;3.48;111.88
34145;HTU21D;69555;53.014;8.886;2023-11-18T06:44:36;3.52;111.76
34145;HTU21D;69555;53.014;8.886;2023-11-18T06:47:02;3.44;111.96
34145;HTU21D;69555;53.014;8.886;2023-11-18T06:49:27;3.43;112.19
34145;HTU21D;69555;53.014;8.886;2023-11-18T06:51:55;3.49;112.21
34145;HTU21D;69555;53.014;8.886;2023-11-18T06:54:20;3.46;112.41
34145;HTU21D;69555;53.014;8.886;2023-11-18T06:56:47;3.55;112.45
34145;HTU21D;69555;53.014;8.886;2023-11-18T06:59:13;3.54;112.42
34145;HTU21D;69555;53.014;8.886;2023-11-18T07:01:41;3.49;112.69
34145;HTU21D;69555;53.014;8.886;2023-11-18T07:04:09;3.49;112.83
34145;HTU21D;69555;53.014;8.886;2023-11-18T07:06:37;3.55;113.06
34145;HTU21D;69555;53.014;8.886;2023-11-18T07:09:08;3.63;112.91
34145;HTU21D;69555;53.014;8.886;2023-11-18T07:11:44;3.49;112.84
34145;HTU21D;69555;53.014;8.886;2023-11-18T07:14:11;3.53;112.90
34145;HTU21D;69555;53.014;8.886;2023-11-18T07:16:40;3.59;112.97
34145;HTU21D;69555;53.014;8.886;2023-11-18T07:19:06;3.61;112.73
34145;HTU21D;69555;53.014;8.886;2023-11-18T07:21:33;3.74;112.42
34145;HTU21D;69555;53.014;8.886;2023-11-18T07:23:59;3.71;111.93
34145;HTU21D;69555;53.014;8.886;2023-11-18T07:26:24;3.80;112.16
34145;HTU21D;69555;53.014;8.886;2023-11-18T07:28:50;3.92;111.35
34145;HTU21D;69555;53.014;8.886;2023-11-18T07:31:17;3.87;111.11
34145;HTU21D;69555;53.014;8.886;2023-11-18T07:33:44;3.91;111.29
34145;HTU21D;69555;53.014;8.886;2023-11-18T07:36:14;3.89;110.90
34145;HTU21D;69555;53.014;8.886;2023-11-18T07:38:41;3.90;110.62
34145;HTU21D;69555;53.014;8.886;2023-11-18T07:41:06;3.91;110.62
34145;HTU21D;69555;53.014;8.886;2023-11-18T07:43:34;3.88;110.64
34145;HTU21D;69555;53.014;8.886;2023-11-18T07:46:01;3.84;110.88
34145;HTU21D;69555;53.014;8.886;2023-11-18T07:48:27;3.72;111.20
34145;HTU21D;69555;53.014;8.886;2023-11-18T07:50:53;3.75;111.46
34145;HTU21D;69555;53.014;8.886;2023-11-18T07:53:18;3.92;111.16
34145;HTU21D;69555;53.014;8.886;2023-11-18T07:55:44;4.06;110.78
34145;HTU21D;69555;53.014;8.886;2023-11-18T07:58:10;3.78;111.16
34145;HTU21D;69555;53.014;8.886;2023-11-18T08:00:43;3.82;111.32
34145;HTU21D;69555;53.014;8.886;2023-11-18T08:03:10;3.90;111.07
34145;HTU21D;69555;53.014;8.886;2023-11-18T08:05:42;4.08;110.67
34145;HTU21D;69555;53.014;8.886;2023-11-18T08:08:13;4.04;110.62
34145;HTU21D;69555;53.014;8.886;2023-11-18T08:10:40;4.07;110.55
34145;HTU21D;69555;53.014;8.886;2023-11-18T08:13:07;4.07;110.75
34145;HTU21D;69555;53.014;8.886;2023-11-18T08:15:43;4.33;110.23
34145;HTU21D;69555;53.014;8.886;2023-11-18T08:18:11;4.09;110.42
34145;HTU21D;69555;53.014;8.886;2023-11-18T08:20:37;4.12;110.93
34145;HTU21D;69555;53.014;8.886;2023-11-18T08:23:03;4.20;110.13
34145;HTU21D;69555;53.014;8.886;2023-11-18T08:25:31;4.03;110.81
34145;HTU21D;69555;53.014;8.886;2023-11-18T08:28:02;3.99;111.47
34145;HTU21D;69555;53.014;8.886;2023-11-18T08:30:30;4.26;110.63
34145;HTU21D;69555;53.014;8.886;2023-11-18T08:33:00;4.29;110.36
34145;HTU21D;69555;53.014;8.886;2023-11-18T08:35:27;4.27;110.20
34145;HTU21D;69555;53.014;8.886;2023-11-18T08:37:56;4.45;109.81
34145;HTU21D;69555;53.014;8.886;2023-11-18T08:40:22;4.09;110.79
34145;HTU21D;69555;53.014;8.886;2023-11-18T08:42:52;4.38;110.62
34145;HTU21D;69555;53.014;8.886;2023-11-18T08:45:28;4.60;109.33
34145;HTU21D;69555;53.014;8.886;2023-11-18T08:48:01;4.37;109.81
34145;HTU21D;69555;53.014;8.886;2023-11-18T08:50:35;4.62;109.46
34145;HTU21D;69555;53.014;8.886;2023-11-18T08:53:02;4.52;109.04
34145;HTU21D;69555;53.014;8.886;2023-11-18T08:55:32;4.46;108.97
34145;HTU21D;69555;53.014;8.886;2023-11-18T08:58:14;4.38;109.04
34145;HTU21D;69555;53.014;8.886;2023-11-18T09:00:50;4.54;109.05
34145;HTU21D;69555;53.014;8.886;2023-11-18T09:06:05;4.60;106.97
34145;HTU21D;69555;53.014;8.886;2023-11-18T09:08:36;4.60;107.69
34145;HTU21D;69555;53.014;8.886;2023-11-18T09:11:06;4.59;107.86
34145;HTU21D;69555;53.014;8.886;2023-11-18T09:13:34;4.63;107.78
34145;HTU21D;69555;53.014;8.886;2023-11-18T09:16:07;4.83;106.88
34145;HTU21D;69555;53.014;8.886;2023-11-18T09:18:43;4.81;107.34
34145;HTU21D;69555;53.014;8.886;2023-11-18T09:21:11;4.96;106.61
34145;HTU21D;69555;53.014;8.886;2023-11-18T09:23:42;4.63;107.60
34145;HTU21D;69555;53.014;8.886;2023-11-18T09:26:09;4.39;108.34
34145;HTU21D;69555;53.014;8.886;2023-11-18T09:28:37;4.39;109.31
34145;HTU21D;69555;53.014;8.886;2023-11-18T09:31:05;4.49;108.43
34145;HTU21D;69555;53.014;8.886;2023-11-18T09:33:33;4.48;108.40
34145;HTU21D;69555;53.014;8.886;2023-11-18T09:36:07;4.47;108.78
34145;HTU21D;69555;53.014;8.886;2023-11-18T09:38:40;4.71;108.35
34145;HTU21D;69555;53.014;8.886;2023-11-18T09:41:12;4.95;107.05
34145;HTU21D;69555;53.014;8.886;2023-11-18T09:43:40;5.21;104.92
34145;HTU21D;69555;53.014;8.886;2023-11-18T09:46:11;5.22;104.05
34145;HTU21D;69555;53.014;8.886;2023-11-18T09:49:16;5.19;104.79
34145;HTU21D;69555;53.014;8.886;2023-11-18T09:51:45;5.04;105.21
34145;HTU21D;69555;53.014;8.886;2023-11-18T09:57:32;5.07;105.90
34145;HTU21D;69555;53.014;8.886;2023-11-18T10:00:08;5.01;106.15
34145;HTU21D;69555;53.014;8.886;2023-11-18T10:03:01;4.79;106.60
34145;HTU21D;69555;53.014;8.886;2023-11-18T10:05:28;4.75;106.70
34145;HTU21D;69555;53.014;8.886;2023-11-18T10:07:56;4.73;106.70
34145;HTU21D;69555;53.014;8.886;2023-11-18T10:10:25;4.82;107.14
34145;HTU21D;69555;53.014;8.886;2023-11-18T10:13:03;4.75;106.88
34145;HTU21D;69555;53.014;8.886;2023-11-18T10:15:51;4.82;106.99
34145;HTU21D;69555;53.014;8.886;2023-11-18T10:18:22;4.73;106.39
34145;HTU21D;69555;53.014;8.886;2023-11-18T10:20:49;4.76;106.51
34145;HTU21D;69555;53.014;8.886;2023-11-18T10:23:25;4.74;106.95
34145;HTU21D;69555;53.014;8.886;2023-11-18T10:25:57;4.74;107.14
34145;HTU21D;69555;53.014;8.886;2023-11-18T10:28:35;4.71;107.56
34145;HTU21D;69555;53.014;8.886;2023-11-18T10:31:06;4.81;107.40
34145;HTU21D;69555;53.014;8.886;2023-11-18T10:33:40;4.73;107.62
34145;HTU21D;69555;53.014;8.886;2023-11-18T10:36:21;4.78;107.59
34145;HTU21D;69555;53.014;8.886;2023-11-18T10:38:52;4.90;107.19
34145;HTU21D;69555;53.014;8.886;2023-11-18T10:41:22;4.87;107.16
34145;HTU21D;69555;53.014;8.886;2023-11-18T10:44:05;4.88;107.95
34145;HTU21D;69555;53.014;8.886;2023-11-18T10:46:32;5.05;107.33
34145;HTU21D;69555;53.014;8.886;2023-11-18T10:48:58;5.02;107.42
34145;HTU21D;69555;53.014;8.886;2023-11-18T10:51:26;5.17;106.67
34145;HTU21D;69555;53.014;8.886;2023-11-18T10:53:53;5.19;106.80
34145;HTU21D;69555;53.014;8.886;2023-11-18T10:56:25;5.28;106.83
34145;HTU21D;69555;53.014;8.886;2023-11-18T10:58:56;5.47;106.23
34145;HTU21D;69555;53.014;8.886;2023-11-18T11:01:31;5.47;106.36
34145;HTU21D;69555;53.014;8.886;2023-11-18T11:04:05;5.59;106.17
34145;HTU21D;69555;53.014;8.886;2023-11-18T11:06:33;5.60;106.10
34145;HTU21D;69555;53.014;8.886;2023-11-18T11:09:00;5.48;105.11
34145;HTU21D;69555;53.014;8.886;2023-11-18T11:11:33;5.49;105.03
34145;HTU21D;69555;53.014;8.886;2023-11-18T11:14:06;5.53;104.92
34145;HTU21D;69555;53.014;8.886;2023-11-18T11:16:40;5.57;105.37
34145;HTU21D;69555;53.014;8.886;2023-11-18T11:22:16;5.59;105.43
34145;HTU21D;69555;53.014;8.886;2023-11-18T11:27:41;5.77;104.95
34145;HTU21D;69555;53.014;8.886;2023-11-18T11:30:22;5.80;104.03
34145;HTU21D;69555;53.014;8.886;2023-11-18T11:33:46;5.86;104.08
34145;HTU21D;69555;53.014;8.886;2023-11-18T11:35:52;5.96;103.60
34145;HTU21D;69555;53.014;8.886;2023-11-18T11:38:22;5.79;104.23
34145;HTU21D;69555;53.014;8.886;2023-11-18T11:40:49;5.78;104.31
34145;HTU21D;69555;53.014;8.886;2023-11-18T11:43:19;5.94;103.85
34145;HTU21D;69555;53.014;8.886;2023-11-18T11:45:50;6.01;103.23
34145;HTU21D;69555;53.014;8.886;2023-11-18T11:48:17;5.93;103.25
34145;HTU21D;69555;53.014;8.886;2023-11-18T11:51:04;5.96;102.85
34145;HTU21D;69555;53.014;8.886;2023-11-18T11:53:36;6.00;102.89
34145;HTU21D;69555;53.014;8.886;2023-11-18T11:56:05;5.98;102.51
34145;HTU21D;69555;53.014;8.886;2023-11-18T11:58:33;6.02;102.86
34145;HTU21D;69555;53.014;8.886;2023-11-18T12:01:02;6.15;102.54
34145;HTU21D;69555;53.014;8.886;2023-11-18T12:03:38;6.10;102.12
34145;HTU21D;69555;53.014;8.886;2023-11-18T12:06:04;6.13;102.10
34145;HTU21D;69555;53.014;8.886;2023-11-18T12:08:35;6.07;101.99
34145;HTU21D;69555;53.014;8.886;2023-11-18T12:11:01;6.08;102.37
34145;HTU21D;69555;53.014;8.886;2023-11-18T12:13:27;6.06;102.06
34145;HTU21D;69555;53.014;8.886;2023-11-18T12:15:54;6.00;102.27
34145;HTU21D;69555;53.014;8.886;2023-11-18T12:18:22;6.02;102.25
34145;HTU21D;69555;53.014;8.886;2023-11-18T12:20:47;6.09;101.94
34145;HTU21D;69555;53.014;8.886;2023-11-18T12:23:14;6.13;101.56
34145;HTU21D;69555;53.014;8.886;2023-11-18T12:25:46;6.14;101.78
34145;HTU21D;69555;53.014;8.886;2023-11-18T12:28:17;6.24;101.62
34145;HTU21D;69555;53.014;8.886;2023-11-18T12:30:55;6.16;101.25
34145;HTU21D;69555;53.014;8.886;2023-11-18T12:33:25;6.14;101.32
34145;HTU21D;69555;53.014;8.886;2023-11-18T12:41:38;6.04;101.74
34145;HTU21D;69555;53.014;8.886;2023-11-18T12:44:15;6.13;101.73
34145;HTU21D;69555;53.014;8.886;2023-11-18T12:49:41;6.19;101.34
34145;HTU21D;69555;53.014;8.886;2023-11-18T12:52:11;6.16;101.00
34145;HTU21D;69555;53.014;8.886;2023-11-18T12:54:40;6.14;101.12
34145;HTU21D;69555;53.014;8.886;2023-11-18T12:57:12;6.12;101.39
34145;HTU21D;69555;53.014;8.886;2023-11-18T12:59:40;6.15;100.67
34145;HTU21D;69555;53.014;8.886;2023-11-18T13:02:07;6.15;101.15
34145;HTU21D;69555;53.014;8.886;2023-11-18T13:04:34;6.14;101.15
34145;HTU21D;69555;53.014;8.886;2023-11-18T13:07:00;6.16;100.96
34145;HTU21D;69555;53.014;8.886;2023-11-18T13:09:28;6.13;100.23
34145;HTU21D;69555;53.014;8.886;2023-11-18T13:11:58;6.16;100.09
34145;HTU21D;69555;53.014;8.886;2023-11-18T13:14:26;6.30;99.46
34145;HTU21D;69555;53.014;8.886;2023-11-18T13:16:53;6.16;99.77
34145;HTU21D;69555;53.014;8.886;2023-11-18T13:19:28;6.22;99.76
34145;HTU21D;69555;53.014;8.886;2023-11-18T13:22:04;6.30;98.71
34145;HTU21D;69555;53.014;8.886;2023-11-18T13:24:34;6.26;98.59
34145;HTU21D;69555;53.014;8.886;2023-11-18T13:27:00;6.17;98.87
34145;HTU21D;69555;53.014;8.886;2023-11-18T13:29:29;6.21;98.62
34145;HTU21D;69555;53.014;8.886;2023-11-18T13:31:55;6.11;98.58
34145;HTU21D;69555;53.014;8.886;2023-11-18T13:34:23;6.09;98.82
34145;HTU21D;69555;53.014;8.886;2023-11-18T13:36:49;6.04;99.07
34145;HTU21D;69555;53.014;8.886;2023-11-18T13:39:19;6.10;98.67
34145;HTU21D;69555;53.014;8.886;2023-11-18T13:41:45;6.02;98.68
34145;HTU21D;69555;53.014;8.886;2023-11-18T13:47:06;6.12;96.65
34145;HTU21D;69555;53.014;8.886;2023-11-18T13:49:37;6.13;96.54
34145;HTU21D;69555;53.014;8.886;2023-11-18T13:52:06;6.08;96.66
34145;HTU21D;69555;53.014;8.886;2023-11-18T13:54:39;6.13;96.25
34145;HTU21D;69555;53.014;8.886;2023-11-18T13:57:08;6.09;96.01
34145;HTU21D;69555;53.014;8.886;2023-11-18T13:59:34;6.13;95.74
34145;HTU21D;69555;53.014;8.886;2023-11-18T14:02:00;6.09;95.10
34145;HTU21D;69555;53.014;8.886;2023-11-18T14:04:31;6.02;95.59
34145;HTU21D;69555;53.014;8.886;2023-11-18T14:07:04;6.24;95.10
34145;HTU21D;69555;53.014;8.886;2023-11-18T14:09:33;6.29;94.45
34145;HTU21D;69555;53.014;8.886;2023-11-18T14:12:05;6.20;94.85
34145;HTU21D;69555;53.014;8.886;2023-11-18T14:14:31;6.08;95.14
34145;HTU21D;69555;53.014;8.886;2023-11-18T14:16:57;6.08;95.41
34145;HTU21D;69555;53.014;8.886;2023-11-18T14:19:24;6.07;95.13
34145;HTU21D;69555;53.014;8.886;2023-11-18T14:21:51;6.07;95.52
34145;HTU21D;69555;53.014;8.886;2023-11-18T14:24:16;6.16;95.43
34145;HTU21D;69555;53.014;8.886;2023-11-18T14:26:43;6.13;95.63
34145;HTU21D;69555;53.014;8.886;2023-11-18T14:29:09;6.15;95.08
34145;HTU21D;69555;53.014;8.886;2023-11-18T14:31:34;6.22;94.90
34145;HTU21D;69555;53.014;8.886;2023-11-18T14:34:00;6.20;95.06
34145;HTU21D;69555;53.014;8.886;2023-11-18T14:36:26;6.17;95.75
34145;HTU21D;69555;53.014;8.886;2023-11-18T14:38:52;6.22;95.67
34145;HTU21D;69555;53.014;8.886;2023-11-18T14:41:17;6.11;96.74
34145;HTU21D;69555;53.014;8.886;2023-11-18T14:43:45;6.10;96.98
34145;HTU21D;69555;53.014;8.886;2023-11-18T14:46:10;5.97;97.68
34145;HTU21D;69555;53.014;8.886;2023-11-18T14:48:36;6.06;97.28
34145;HTU21D;69555;53.014;8.886;2023-11-18T14:51:01;6.00;97.83
34145;HTU21D;69555;53.014;8.886;2023-11-18T14:53:26;5.89;98.23
34145;HTU21D;69555;53.014;8.886;2023-11-18T14:55:52;5.87;98.91
34145;HTU21D;69555;53.014;8.886;2023-11-18T14:58:18;5.86;98.77
34145;HTU21D;69555;53.014;8.886;2023-11-18T15:00:44;5.92;98.56
34145;HTU21D;69555;53.014;8.886;2023-11-18T15:03:12;5.97;98.46
34145;HTU21D;69555;53.014;8.886;2023-11-18T15:05:38;5.98;98.71
34145;HTU21D;69555;53.014;8.886;2023-11-18T15:08:03;5.86;99.14
34145;HTU21D;69555;53.014;8.886;2023-11-18T15:10:34;5.89;99.26
34145;HTU21D;69555;53.014;8.886;2023-11-18T15:13:02;5.87;99.68
34145;HTU21D;69555;53.014;8.886;2023-11-18T15:15:29;5.83;100.07
34145;HTU21D;69555;53.014;8.886;2023-11-18T15:18:04;5.91;100.03
34145;HTU21D;69555;53.014;8.886;2023-11-18T15:20:30;5.80;100.45
34145;HTU21D;69555;53.014;8.886;2023-11-18T15:22:56;5.81;101.17
34145;HTU21D;69555;53.014;8.886;2023-11-18T15:25:22;5.77;101.61
34145;HTU21D;69555;53.014;8.886;2023-11-18T15:27:47;5.89;101.27
34145;HTU21D;69555;53.014;8.886;2023-11-18T15:30:13;5.75;101.74
34145;HTU21D;69555;53.014;8.886;2023-11-18T15:32:40;5.70;101.84
34145;HTU21D;69555;53.014;8.886;2023-11-18T15:35:07;5.68;102.59
34145;HTU21D;69555;53.014;8.886;2023-11-18T15:37:40;5.69;102.56
34145;HTU21D;69555;53.014;8.886;2023-11-18T15:40:12;5.54;103.95
34145;HTU21D;69555;53.014;8.886;2023-11-18T15:42:39;5.62;103.49
34145;HTU21D;69555;53.014;8.886;2023-11-18T15:45:11;5.66;103.63
34145;HTU21D;69555;53.014;8.886;2023-11-18T15:47:41;5.59;103.88
34145;HTU21D;69555;53.014;8.886;2023-11-18T15:50:09;5.50;104.19
34145;HTU21D;69555;53.014;8.886;2023-11-18T15:52:40;5.54;104.28